createdAt,value
2019-03-31T00:00:38.593Z,8.79
2019-03-31T00:03:06.457Z,8.42
2019-03-31T00:05:37.147Z,8.65
2019-03-31T00:08:02.038Z,8.08
2019-03-31T00:10:29.821Z,8.33
2019-03-31T00:12:57.625Z,8.44
2019-03-31T00:15:25.405Z,8.56
2019-03-31T00:17:53.198Z,8.79
2019-03-31T00:20:20.995Z,8.86
2019-03-31T00:22:48.810Z,8.82
2019-03-31T00:25:16.605Z,9.20
2019-03-31T00:27:44.408Z,8.71
2019-03-31T00:30:12.366Z,8.51
2019-03-31T00:32:40.174Z,8.50
2019-03-31T00:35:07.957Z,8.30
2019-03-31T00:37:35.758Z,8.23
2019-03-31T00:40:03.726Z,8.36
2019-03-31T00:42:31.529Z,8.18
2019-03-31T00:44:59.322Z,8.03
2019-03-31T00:47:27.128Z,7.71
2019-03-31T00:49:54.910Z,7.69
2019-03-31T00:52:22.743Z,7.74
2019-03-31T00:54:50.710Z,7.74
2019-03-31T00:57:18.602Z,7.83
2019-03-31T00:59:46.905Z,7.34
2019-03-31T01:02:16.001Z,7.01
2019-03-31T01:04:43.897Z,6.94
2019-03-31T01:07:11.747Z,6.87
2019-03-31T01:09:39.809Z,6.72
2019-03-31T01:12:07.661Z,6.90
2019-03-31T01:14:36.166Z,6.92
2019-03-31T01:17:04.625Z,6.68
2019-03-31T01:19:32.571Z,6.87
2019-03-31T01:22:00.598Z,6.88
2019-03-31T01:24:28.533Z,6.84
2019-03-31T01:26:56.340Z,6.80
2019-03-31T01:29:24.138Z,6.74
2019-03-31T01:31:51.930Z,6.70
2019-03-31T01:34:19.744Z,6.92
2019-03-31T01:36:47.522Z,6.71
2019-03-31T01:39:15.333Z,6.67
2019-03-31T01:41:46.101Z,6.51
2019-03-31T01:44:14.430Z,7.13
2019-03-31T01:46:42.802Z,6.60
2019-03-31T01:49:10.778Z,6.53
2019-03-31T01:51:38.684Z,7.12
2019-03-31T01:54:06.488Z,6.77
2019-03-31T01:56:34.276Z,6.81
2019-03-31T01:59:02.089Z,7.15
2019-03-31T02:01:29.868Z,6.49
2019-03-31T02:03:57.661Z,6.37
2019-03-31T02:06:25.437Z,6.21
2019-03-31T02:08:53.242Z,5.98
2019-03-31T02:11:21.035Z,5.51
2019-03-31T02:13:48.826Z,5.44
2019-03-31T02:16:16.643Z,5.47
2019-03-31T02:18:44.669Z,5.65
2019-03-31T02:21:12.724Z,5.91
2019-03-31T02:23:40.907Z,6.25
2019-03-31T02:26:08.770Z,6.39
2019-03-31T02:28:36.612Z,6.60
2019-03-31T02:31:04.590Z,6.46
2019-03-31T02:33:32.650Z,6.15
2019-03-31T02:36:00.551Z,6.09
2019-03-31T02:38:28.396Z,6.24
2019-03-31T02:40:56.208Z,6.06
2019-03-31T02:43:24.342Z,6.30
2019-03-31T02:45:52.172Z,6.33
2019-03-31T02:48:19.995Z,6.51
2019-03-31T02:50:49.183Z,6.49
2019-03-31T02:53:17.949Z,6.50
2019-03-31T02:55:46.570Z,6.70
2019-03-31T02:58:17.425Z,7.11
2019-03-31T03:00:47.952Z,6.78
2019-03-31T03:03:15.974Z,7.03
2019-03-31T03:05:44.180Z,7.12
2019-03-31T03:08:12.702Z,6.65
2019-03-31T03:10:40.577Z,6.43
2019-03-31T03:13:08.862Z,6.14
2019-03-31T03:15:43.171Z,6.73
2019-03-31T03:18:11.063Z,6.10
2019-03-31T03:20:38.947Z,6.45
2019-03-31T03:23:06.758Z,5.86
2019-03-31T03:25:34.549Z,5.67
2019-03-31T03:28:02.580Z,5.66
2019-03-31T03:30:30.549Z,5.73
2019-03-31T03:33:14.632Z,5.39
2019-03-31T03:35:26.166Z,5.66
2019-03-31T03:37:54.083Z,5.28
2019-03-31T03:40:21.906Z,5.42
2019-03-31T03:42:49.716Z,5.45
2019-03-31T03:45:17.589Z,5.41
2019-03-31T03:47:45.474Z,5.41
2019-03-31T03:50:13.408Z,5.44
2019-03-31T03:52:41.287Z,5.51
2019-03-31T03:55:09.213Z,6.16
2019-03-31T03:57:37.134Z,6.61
2019-03-31T04:00:05.468Z,6.75
2019-03-31T04:02:34.055Z,6.32
2019-03-31T04:05:02.157Z,6.13
2019-03-31T04:07:30.046Z,5.91
2019-03-31T04:09:59.016Z,6.08
2019-03-31T04:12:26.871Z,5.93
2019-03-31T04:14:54.774Z,5.67
2019-03-31T04:17:22.579Z,6.33
2019-03-31T04:19:50.426Z,6.03
2019-03-31T04:22:18.353Z,5.85
2019-03-31T04:24:46.208Z,5.70
2019-03-31T04:27:18.552Z,6.12
2019-03-31T04:29:42.046Z,5.65
2019-03-31T04:32:09.911Z,5.34
2019-03-31T04:34:37.895Z,5.24
2019-03-31T04:37:05.748Z,5.36
2019-03-31T04:39:33.601Z,5.42
2019-03-31T04:42:01.450Z,5.80
2019-03-31T04:44:29.274Z,6.08
2019-03-31T04:46:57.096Z,6.24
2019-03-31T04:49:24.944Z,6.18
2019-03-31T04:51:52.726Z,5.82
2019-03-31T04:54:20.550Z,5.72
2019-03-31T04:56:48.370Z,5.69
2019-03-31T04:59:16.212Z,5.53
2019-03-31T05:01:44.026Z,5.48
2019-03-31T05:04:11.844Z,5.31
2019-03-31T05:06:40.851Z,5.25
2019-03-31T05:09:08.595Z,5.40
2019-03-31T05:11:36.487Z,5.15
2019-03-31T05:14:04.285Z,4.95
2019-03-31T05:16:32.290Z,4.82
2019-03-31T05:19:00.102Z,4.78
2019-03-31T05:21:27.884Z,4.85
2019-03-31T05:23:55.684Z,5.05
2019-03-31T05:26:23.558Z,5.25
2019-03-31T05:28:52.170Z,5.48
2019-03-31T05:31:19.987Z,5.46
2019-03-31T05:33:48.198Z,5.45
2019-03-31T05:36:15.983Z,5.53
2019-03-31T05:38:43.793Z,5.76
2019-03-31T05:41:11.584Z,5.74
2019-03-31T05:43:39.378Z,5.85
2019-03-31T05:46:07.158Z,5.78
2019-03-31T05:48:34.955Z,5.93
2019-03-31T05:51:02.743Z,6.20
2019-03-31T05:53:30.542Z,5.73
2019-03-31T05:55:58.347Z,5.82
2019-03-31T05:58:26.139Z,5.66
2019-03-31T06:00:53.942Z,5.83
2019-03-31T06:03:21.721Z,6.23
2019-03-31T06:05:49.527Z,6.34
2019-03-31T06:08:17.357Z,6.52
2019-03-31T06:10:45.166Z,6.49
2019-03-31T06:13:12.954Z,6.65
2019-03-31T06:15:40.798Z,7.30
2019-03-31T06:18:08.679Z,7.08
2019-03-31T06:20:36.470Z,7.19
2019-03-31T06:23:04.312Z,7.44
2019-03-31T06:25:32.118Z,7.37
2019-03-31T06:28:00.490Z,7.87
2019-03-31T06:30:28.287Z,7.80
2019-03-31T06:32:56.070Z,7.77
2019-03-31T06:35:23.874Z,7.79
2019-03-31T06:37:51.686Z,7.89
2019-03-31T06:40:19.505Z,7.94
2019-03-31T06:42:47.410Z,8.07
2019-03-31T06:45:15.209Z,8.10
2019-03-31T06:47:42.986Z,8.40
2019-03-31T06:50:10.802Z,8.46
2019-03-31T06:52:38.582Z,8.56
2019-03-31T06:55:06.645Z,8.83
2019-03-31T06:57:34.434Z,8.84
2019-03-31T07:00:02.261Z,8.95
2019-03-31T07:02:30.069Z,9.00
2019-03-31T07:05:01.307Z,9.06
2019-03-31T07:07:25.674Z,9.56
2019-03-31T07:09:53.566Z,9.43
2019-03-31T07:15:02.733Z,9.57
2019-03-31T07:17:30.804Z,9.67
2019-03-31T07:19:58.634Z,9.67
2019-03-31T07:22:26.445Z,10.12
2019-03-31T07:24:54.251Z,10.10
2019-03-31T07:27:22.026Z,10.25
2019-03-31T07:29:49.834Z,10.30
2019-03-31T07:32:17.626Z,10.42
2019-03-31T07:34:45.435Z,10.40
2019-03-31T07:37:13.218Z,10.70
2019-03-31T07:39:41.502Z,10.69
2019-03-31T07:42:09.218Z,10.81
2019-03-31T07:44:36.866Z,10.98
2019-03-31T07:47:04.642Z,11.05
2019-03-31T07:49:32.494Z,11.21
2019-03-31T07:52:00.381Z,11.40
2019-03-31T07:54:28.105Z,11.61
2019-03-31T07:56:55.906Z,11.68
2019-03-31T07:59:23.710Z,11.78
2019-03-31T08:01:51.486Z,12.04
2019-03-31T08:04:19.262Z,12.35
2019-03-31T08:06:47.062Z,12.38
2019-03-31T08:09:14.854Z,12.44
2019-03-31T08:11:42.658Z,12.71
2019-03-31T08:14:10.463Z,13.11
2019-03-31T08:16:38.282Z,13.44
2019-03-31T08:19:06.066Z,13.20
2019-03-31T08:21:33.906Z,13.23
2019-03-31T08:24:01.691Z,13.27
2019-03-31T08:26:29.496Z,13.36
2019-03-31T08:28:58.658Z,13.74
2019-03-31T08:31:25.158Z,13.75
2019-03-31T08:33:52.938Z,13.88
2019-03-31T08:36:20.750Z,14.09
2019-03-31T08:38:48.543Z,14.09
2019-03-31T08:41:16.353Z,14.35
2019-03-31T08:43:44.175Z,14.34
2019-03-31T08:46:11.970Z,14.41
2019-03-31T08:48:39.745Z,14.39
2019-03-31T08:51:07.561Z,14.41
2019-03-31T08:53:35.417Z,14.65
2019-03-31T08:56:03.251Z,15.17
2019-03-31T08:58:31.133Z,15.54
2019-03-31T09:01:01.806Z,15.32
2019-03-31T09:03:29.634Z,15.38
2019-03-31T09:06:01.972Z,15.38
2019-03-31T09:08:25.262Z,15.70
2019-03-31T09:10:53.078Z,15.49
2019-03-31T09:13:20.854Z,15.58
2019-03-31T09:15:48.674Z,15.64
2019-03-31T09:18:16.451Z,15.97
2019-03-31T09:20:44.229Z,16.32
2019-03-31T09:23:12.034Z,16.34
2019-03-31T09:25:39.814Z,16.41
2019-03-31T09:28:07.623Z,16.51
2019-03-31T09:30:35.403Z,16.90
2019-03-31T09:33:03.326Z,17.13
2019-03-31T09:35:31.107Z,17.41
2019-03-31T09:37:58.916Z,17.48
2019-03-31T09:40:26.718Z,17.35
2019-03-31T09:42:54.605Z,17.74
2019-03-31T09:45:22.534Z,18.07
2019-03-31T09:47:50.350Z,17.95
2019-03-31T09:50:18.166Z,18.19
2019-03-31T09:52:45.967Z,18.12
2019-03-31T09:55:13.753Z,18.33
2019-03-31T09:57:41.550Z,18.31
2019-03-31T10:00:10.122Z,18.35
2019-03-31T10:02:38.457Z,18.76
2019-03-31T10:05:06.374Z,18.78
2019-03-31T10:07:34.210Z,18.58
2019-03-31T10:10:02.004Z,18.80
2019-03-31T10:12:29.906Z,18.87
2019-03-31T10:14:57.694Z,18.73
2019-03-31T10:17:25.509Z,19.04
2019-03-31T10:19:53.303Z,19.29
2019-03-31T10:22:21.098Z,19.09
2019-03-31T10:24:48.894Z,19.22
2019-03-31T10:27:16.703Z,19.03
2019-03-31T10:29:44.618Z,18.99
2019-03-31T10:32:12.406Z,19.68
2019-03-31T10:34:40.206Z,19.84
2019-03-31T10:37:08.010Z,19.47
2019-03-31T10:39:35.854Z,19.26
2019-03-31T10:42:03.673Z,19.73
2019-03-31T10:44:31.477Z,19.50
2019-03-31T10:46:59.686Z,19.78
2019-03-31T10:49:27.477Z,20.28
2019-03-31T10:51:55.598Z,20.39
2019-03-31T10:54:23.386Z,20.26
2019-03-31T10:56:51.182Z,20.15
2019-03-31T10:59:19.037Z,19.86
2019-03-31T11:01:46.918Z,20.51
2019-03-31T11:04:14.846Z,20.31
2019-03-31T11:06:42.653Z,20.09
2019-03-31T11:09:10.466Z,20.12
2019-03-31T11:11:38.268Z,20.11
2019-03-31T11:14:06.162Z,20.24
2019-03-31T11:16:33.969Z,20.66
2019-03-31T11:19:01.778Z,20.58
2019-03-31T11:21:34.267Z,20.79
2019-03-31T11:24:02.088Z,20.97
2019-03-31T11:26:29.881Z,21.18
2019-03-31T11:28:57.701Z,20.93
2019-03-31T11:31:25.501Z,21.01
2019-03-31T11:33:53.310Z,21.18
2019-03-31T11:36:21.109Z,20.89
2019-03-31T11:38:48.994Z,20.65
2019-03-31T11:41:16.871Z,20.83
2019-03-31T11:43:44.678Z,21.33
2019-03-31T11:46:12.469Z,21.17
2019-03-31T11:48:40.278Z,20.97
2019-03-31T11:51:08.085Z,21.14
2019-03-31T11:53:35.890Z,21.14
2019-03-31T11:56:03.682Z,21.03
2019-03-31T11:58:32.399Z,20.87
2019-03-31T12:00:59.277Z,21.39
2019-03-31T12:03:30.624Z,21.76
2019-03-31T12:05:54.969Z,21.13
2019-03-31T12:08:22.786Z,21.13
2019-03-31T12:10:50.561Z,21.43
2019-03-31T12:13:18.377Z,21.22
2019-03-31T12:15:46.193Z,21.30
2019-03-31T12:18:14.014Z,21.24
2019-03-31T12:20:41.801Z,21.53
2019-03-31T12:23:09.697Z,21.43
2019-03-31T12:25:37.487Z,21.74
2019-03-31T12:28:05.325Z,22.10
2019-03-31T12:30:33.099Z,22.16
2019-03-31T12:33:00.942Z,22.09
2019-03-31T12:35:28.733Z,21.78
2019-03-31T12:37:56.554Z,21.51
2019-03-31T12:40:29.929Z,21.75
2019-03-31T12:42:57.814Z,21.47
2019-03-31T12:45:25.614Z,21.43
2019-03-31T12:47:53.422Z,21.57
2019-03-31T12:50:21.207Z,21.67
2019-03-31T12:52:51.091Z,21.85
2019-03-31T12:55:16.835Z,21.71
2019-03-31T12:57:44.710Z,21.66
2019-03-31T13:00:12.512Z,22.00
2019-03-31T13:02:40.306Z,22.43
2019-03-31T13:05:08.103Z,22.42
2019-03-31T13:07:35.890Z,22.36
2019-03-31T13:10:03.762Z,22.26
2019-03-31T13:12:34.799Z,21.97
2019-03-31T13:14:59.366Z,21.74
2019-03-31T13:17:27.182Z,21.43
2019-03-31T13:19:54.994Z,21.55
2019-03-31T13:22:22.782Z,21.78
2019-03-31T13:24:50.610Z,22.06
2019-03-31T13:27:18.414Z,22.07
2019-03-31T13:29:46.240Z,21.86
2019-03-31T13:32:14.010Z,21.69
2019-03-31T13:34:41.814Z,21.63
2019-03-31T13:37:09.618Z,21.62
2019-03-31T13:39:37.434Z,21.47
2019-03-31T13:42:05.242Z,21.15
2019-03-31T13:44:33.042Z,21.28
2019-03-31T13:47:00.864Z,21.39
2019-03-31T13:49:28.630Z,21.36
2019-03-31T13:51:56.406Z,21.21
2019-03-31T13:54:24.205Z,21.44
2019-03-31T13:56:52.691Z,21.55
2019-03-31T13:59:19.814Z,21.39
2019-03-31T14:01:47.594Z,21.27
2019-03-31T14:04:15.401Z,21.39
2019-03-31T14:06:43.209Z,21.41
2019-03-31T14:09:10.999Z,21.90
2019-03-31T14:11:38.801Z,21.76
2019-03-31T14:14:06.635Z,21.67
2019-03-31T14:16:34.410Z,21.59
2019-03-31T14:19:02.222Z,21.37
2019-03-31T14:21:30.027Z,21.51
2019-03-31T14:23:57.841Z,21.58
2019-03-31T14:26:25.626Z,21.43
2019-03-31T14:28:53.445Z,21.32
2019-03-31T14:31:21.222Z,21.17
2019-03-31T14:33:49.017Z,21.00
2019-03-31T14:36:16.822Z,21.13
2019-03-31T14:38:44.634Z,21.51
2019-03-31T14:41:12.458Z,21.56
2019-03-31T14:43:40.254Z,21.17
2019-03-31T14:46:08.078Z,21.08
2019-03-31T14:48:35.883Z,20.96
2019-03-31T14:51:03.701Z,21.12
2019-03-31T14:53:31.490Z,21.15
2019-03-31T14:55:59.329Z,21.18
2019-03-31T14:58:27.111Z,21.11
2019-03-31T15:00:54.910Z,20.99
2019-03-31T15:03:22.722Z,20.85
2019-03-31T15:05:50.533Z,20.87
2019-03-31T15:08:18.343Z,20.76
2019-03-31T15:10:46.183Z,20.70
2019-03-31T15:13:13.982Z,20.62
2019-03-31T15:15:41.794Z,20.68
2019-03-31T15:18:09.601Z,20.80
2019-03-31T15:20:37.415Z,20.90
2019-03-31T15:23:05.210Z,20.91
2019-03-31T15:25:33.069Z,20.78
2019-03-31T15:28:01.071Z,20.58
2019-03-31T15:30:28.890Z,20.55
2019-03-31T15:32:56.698Z,20.61
2019-03-31T15:35:24.523Z,20.63
2019-03-31T15:37:52.386Z,20.77
2019-03-31T15:40:20.195Z,20.65
2019-03-31T15:42:47.980Z,20.60
2019-03-31T15:45:15.817Z,20.68
2019-03-31T15:47:43.646Z,20.52
2019-03-31T15:50:11.578Z,20.67
2019-03-31T15:52:40.200Z,20.59
2019-03-31T15:55:08.015Z,20.66
2019-03-31T15:57:35.851Z,20.68
2019-03-31T16:00:04.018Z,20.55
2019-03-31T16:02:31.806Z,20.42
2019-03-31T16:04:59.609Z,20.42
2019-03-31T16:07:27.438Z,20.21
2019-03-31T16:09:54.191Z,20.30
2019-03-31T16:12:20.951Z,20.53
2019-03-31T16:14:47.709Z,20.47
2019-03-31T16:17:14.493Z,20.42
2019-03-31T16:19:41.246Z,20.21
2019-03-31T16:22:08.022Z,20.35
2019-03-31T16:24:39.403Z,20.25
2019-03-31T16:27:06.154Z,20.14
2019-03-31T16:29:32.894Z,20.04
2019-03-31T16:31:59.688Z,19.89
2019-03-31T16:34:26.406Z,19.86
2019-03-31T16:36:53.275Z,19.77
2019-03-31T16:39:20.014Z,19.55
2019-03-31T16:41:46.778Z,19.40
2019-03-31T16:44:13.520Z,19.32
2019-03-31T16:46:40.327Z,19.28
2019-03-31T16:49:07.130Z,19.20
2019-03-31T16:51:33.890Z,19.18
2019-03-31T16:54:00.622Z,19.07
2019-03-31T16:56:27.406Z,19.01
2019-03-31T16:58:54.152Z,18.92
2019-03-31T17:01:20.894Z,18.78
2019-03-31T17:03:47.634Z,18.71
2019-03-31T17:06:14.394Z,18.69
2019-03-31T17:08:41.122Z,18.58
2019-03-31T17:11:07.875Z,18.54
2019-03-31T17:13:34.775Z,18.39
2019-03-31T17:16:01.526Z,18.19
2019-03-31T17:18:28.279Z,18.04
2019-03-31T17:20:55.046Z,18.05
2019-03-31T17:23:21.773Z,18.03
2019-03-31T17:25:48.888Z,17.91
2019-03-31T17:28:15.574Z,17.77
2019-03-31T17:30:42.321Z,17.86
2019-03-31T17:33:09.037Z,17.73
2019-03-31T17:35:35.801Z,17.49
2019-03-31T17:38:02.535Z,17.40
2019-03-31T17:40:29.286Z,17.40
2019-03-31T17:42:56.170Z,17.26
2019-03-31T17:45:22.950Z,17.30
2019-03-31T17:47:49.674Z,17.08
2019-03-31T17:50:16.481Z,16.99
2019-03-31T17:52:43.251Z,16.90
2019-03-31T17:55:09.990Z,16.65
2019-03-31T17:57:36.775Z,16.38
2019-03-31T18:00:04.844Z,16.22
2019-03-31T18:02:31.618Z,16.15
2019-03-31T18:04:58.358Z,16.08
2019-03-31T18:07:25.117Z,16.09
2019-03-31T18:09:51.850Z,15.88
2019-03-31T18:12:18.598Z,15.75
2019-03-31T18:14:45.322Z,15.63
2019-03-31T18:17:12.059Z,15.51
2019-03-31T18:19:38.796Z,15.41
2019-03-31T18:22:16.238Z,15.23
2019-03-31T18:24:32.361Z,15.16
2019-03-31T18:26:59.106Z,15.09
2019-03-31T18:29:25.846Z,14.97
2019-03-31T18:31:52.610Z,14.88
2019-03-31T18:34:19.334Z,14.75
2019-03-31T18:36:46.082Z,14.75
2019-03-31T18:39:12.822Z,14.66
2019-03-31T18:41:39.578Z,14.61
2019-03-31T18:44:06.316Z,14.52
2019-03-31T18:46:33.062Z,14.51
2019-03-31T18:48:59.803Z,14.38
2019-03-31T18:51:26.565Z,14.26
2019-03-31T18:53:59.175Z,14.32
2019-03-31T18:56:46.515Z,14.30
2019-03-31T18:59:24.673Z,14.16
2019-03-31T19:02:13.016Z,14.03
2019-03-31T19:04:56.739Z,13.85
2019-03-31T19:07:42.820Z,13.85
2019-03-31T19:10:24.811Z,13.78
2019-03-31T19:13:13.771Z,13.72
2019-03-31T19:15:54.411Z,13.51
2019-03-31T19:18:29.306Z,13.49
2019-03-31T19:21:10.904Z,13.41
2019-03-31T19:23:49.422Z,13.20
2019-03-31T19:26:48.385Z,13.15
2019-03-31T19:29:17.101Z,13.11
2019-03-31T19:31:48.530Z,13.03
2019-03-31T19:34:24.550Z,13.10
2019-03-31T19:36:56.979Z,13.08
2019-03-31T19:39:29.498Z,12.95
2019-03-31T19:42:05.323Z,12.83
2019-03-31T19:44:42.391Z,12.74
2019-03-31T19:47:21.539Z,12.77
2019-03-31T19:49:57.670Z,12.73
2019-03-31T19:52:48.838Z,12.64
2019-03-31T19:55:26.174Z,12.67
2019-03-31T19:57:58.683Z,12.60
2019-03-31T20:00:36.465Z,12.55
2019-03-31T20:03:09.115Z,12.52
2019-03-31T20:05:45.086Z,12.40
2019-03-31T20:08:31.446Z,12.38
2019-03-31T20:11:18.802Z,12.37
2019-03-31T20:13:55.477Z,12.34
2019-03-31T20:16:28.067Z,12.37
2019-03-31T20:19:14.427Z,12.33
2019-03-31T20:21:48.719Z,12.24
2019-03-31T20:24:26.266Z,12.18
2019-03-31T20:27:00.189Z,12.10
2019-03-31T20:29:34.097Z,12.07
2019-03-31T20:32:06.589Z,12.05
2019-03-31T20:34:46.338Z,11.92
2019-03-31T20:37:23.553Z,11.84
2019-03-31T20:40:07.043Z,11.74
2019-03-31T20:42:42.890Z,11.70
2019-03-31T20:45:09.651Z,11.64
2019-03-31T20:47:36.410Z,11.51
2019-03-31T20:50:04.038Z,11.49
2019-03-31T20:52:30.778Z,11.47
2019-03-31T20:54:57.504Z,11.41
2019-03-31T20:57:24.254Z,11.36
2019-03-31T20:59:51.092Z,11.38
2019-03-31T21:02:17.735Z,11.33
2019-03-31T21:04:44.474Z,11.30
2019-03-31T21:07:11.271Z,11.19
2019-03-31T21:09:44.938Z,11.21
2019-03-31T21:12:04.715Z,11.13
2019-03-31T21:14:31.454Z,11.13
2019-03-31T21:16:58.185Z,11.08
2019-03-31T21:19:24.937Z,10.93
2019-03-31T21:21:51.672Z,10.76
2019-03-31T21:24:18.426Z,10.69
2019-03-31T21:26:45.158Z,10.67
2019-03-31T21:29:11.909Z,10.62
2019-03-31T21:31:38.679Z,10.64
2019-03-31T21:34:05.430Z,10.60
2019-03-31T21:36:32.146Z,10.63
2019-03-31T21:38:58.899Z,10.52
2019-03-31T21:41:25.630Z,10.49
2019-03-31T21:43:52.382Z,10.42
2019-03-31T21:46:19.153Z,10.29
2019-03-31T21:48:45.898Z,10.39
2019-03-31T21:51:12.641Z,10.32
2019-03-31T21:53:39.394Z,10.27
2019-03-31T21:56:06.113Z,10.19
2019-03-31T21:58:32.906Z,10.26
2019-03-31T22:00:59.672Z,10.22
2019-03-31T22:03:26.426Z,10.11
2019-03-31T22:05:53.168Z,10.04
2019-03-31T22:08:19.922Z,10.07
2019-03-31T22:10:46.674Z,9.96
2019-03-31T22:13:13.413Z,10.00
2019-03-31T22:15:40.157Z,9.99
2019-03-31T22:18:06.890Z,9.89
2019-03-31T22:20:33.630Z,9.85
2019-03-31T22:23:00.362Z,9.72
2019-03-31T22:25:27.106Z,9.70
2019-03-31T22:27:53.826Z,9.61
2019-03-31T22:30:20.587Z,9.55
2019-03-31T22:32:47.323Z,9.42
2019-03-31T22:35:14.077Z,9.39
2019-03-31T22:37:40.807Z,9.42
2019-03-31T22:40:07.619Z,9.46
2019-03-31T22:42:34.355Z,9.41
2019-03-31T22:45:01.101Z,9.46
2019-03-31T22:47:27.830Z,9.38
2019-03-31T22:49:54.574Z,9.31
2019-03-31T22:52:21.306Z,9.26
2019-03-31T22:54:48.086Z,9.38
2019-03-31T22:57:14.818Z,9.35
2019-03-31T22:59:41.574Z,9.16
2019-03-31T23:02:08.330Z,9.08
2019-03-31T23:04:35.090Z,9.13
2019-03-31T23:07:01.817Z,9.06
2019-03-31T23:09:28.691Z,9.01
2019-03-31T23:11:55.414Z,9.00
2019-03-31T23:14:22.186Z,8.90
2019-03-31T23:16:48.913Z,8.77
2019-03-31T23:19:15.670Z,8.63
2019-03-31T23:21:42.413Z,8.71
2019-03-31T23:24:09.146Z,8.72
2019-03-31T23:26:35.874Z,8.67
2019-03-31T23:29:02.633Z,8.66
2019-03-31T23:31:29.354Z,8.64
2019-03-31T23:33:56.087Z,8.69
2019-03-31T23:36:22.849Z,8.74
2019-03-31T23:38:49.642Z,8.59
2019-03-31T23:41:16.420Z,8.76
2019-03-31T23:43:43.154Z,8.77
2019-03-31T23:46:09.904Z,8.63
2019-03-31T23:48:36.632Z,8.54
2019-03-31T23:51:03.378Z,8.53
2019-03-31T23:53:30.103Z,8.55
2019-03-31T23:55:56.858Z,8.48
2019-03-31T23:58:23.598Z,8.35
